Time;durP1;ratioP1;P1;durP2;ratioP2;P2;SDS_P1;SDS_P2;PMS_P1;PMS_P2;Temp;Humidity;BMP_temperature;BMP_pressure;BME280_temperature;BME280_humidity;BME280_pressure;Samples;Min_cycle;Max_cycle;Signal;HPM_P1;HPM_P2
2022/11/14 00:00:15;;;;;;;;;;;;;;;0.63;70.67;99636.84;5007443;28;19937;-85
2022/11/14 00:03:01;;;;;;;;;;;;;;;0.64;71.17;99617.28;4990433;28;19989;-83
2022/11/14 00:05:47;;;;;;;;;;;;;;;0.66;71.15;99625.91;5012585;28;19933;-87
2022/11/14 00:08:32;;;;;;;;;;;;;;;0.63;70.29;99618.25;4992708;28;19929;-86
2022/11/14 00:11:17;;;;;;;;;;;;;;;0.56;70.78;99610.13;5008332;28;20399;-85
2022/11/14 00:14:02;;;;;;;;;;;;;;;0.54;70.79;99627.25;5013810;28;19929;-85
2022/11/14 00:16:48;;;;;;;;;;;;;;;0.57;70.59;99619.75;5012267;28;19929;-84
2022/11/14 00:19:34;;;;;;;;;;;;;;;0.63;70.46;99628.88;5012861;28;19933;-84
2022/11/14 00:22:19;;;;;;;;;;;;;;;0.67;70.55;99624.91;5014187;28;19937;-84
2022/11/14 00:25:04;;;;;;;;;;;;;;;0.58;72.05;99632.06;5014123;28;19960;-85
2022/11/14 00:27:50;;;;;;;;;;;;;;;0.43;74.16;99634.53;5009280;28;19929;-87
2022/11/14 00:30:36;;;;;;;;;;;;;;;0.35;75.72;99638.97;5012969;28;20411;-83
2022/11/14 00:33:21;;;;;;;;;;;;;;;0.25;76.92;99641.78;5013121;28;19929;-84
2022/11/14 00:36:06;;;;;;;;;;;;;;;0.13;78.86;99632.47;4993342;28;19984;-85
2022/11/14 00:38:53;;;;;;;;;;;;;;;-0.12;80.11;99618.31;5012866;28;19940;-82
2022/11/14 00:41:39;;;;;;;;;;;;;;;-0.31;81.56;99638.75;5016110;28;19936;-83
2022/11/14 00:44:24;;;;;;;;;;;;;;;-0.39;82.60;99643.22;5014564;28;19936;-84
2022/11/14 00:47:10;;;;;;;;;;;;;;;-0.48;83.64;99643.19;5011633;28;20399;-85
2022/11/14 00:49:56;;;;;;;;;;;;;;;-0.45;84.06;99642.84;5012613;28;19936;-84
2022/11/14 00:52:41;;;;;;;;;;;;;;;-0.46;83.79;99654.47;5013490;28;20065;-84
2022/11/14 00:55:26;;;;;;;;;;;;;;;-0.44;83.31;99652.47;5011804;28;19929;-86
2022/11/14 00:58:12;;;;;;;;;;;;;;;-0.40;83.27;99660.13;5012378;28;20007;-85
2022/11/14 01:00:58;;;;;;;;;;;;;;;-0.38;82.97;99664.28;5012840;28;19940;-86
2022/11/14 01:03:46;;;;;;;;;;;;;;;-0.35;82.55;99671.09;5013651;28;20276;-84
2022/11/14 01:06:31;;;;;;;;;;;;;;;-0.34;82.66;99667.44;5011760;28;19929;-84
2022/11/14 01:09:17;;;;;;;;;;;;;;;-0.27;82.46;99673.78;5013191;28;20366;-84
2022/11/14 01:12:02;;;;;;;;;;;;;;;-0.23;82.44;99665.34;4995950;28;19929;-85
2022/11/14 01:14:48;;;;;;;;;;;;;;;-0.18;82.11;99670.16;5011633;28;19956;-84
2022/11/14 01:17:33;;;;;;;;;;;;;;;-0.23;80.25;99668.00;5011411;28;20000;-84
2022/11/14 01:20:18;;;;;;;;;;;;;;;-0.28;79.92;99677.41;5012944;28;19937;-83
2022/11/14 01:23:03;;;;;;;;;;;;;;;-0.32;79.63;99671.59;5013537;28;19976;-85
2022/11/14 01:25:49;;;;;;;;;;;;;;;-0.34;78.43;99675.41;5011370;28;19940;-84
2022/11/14 01:28:34;;;;;;;;;;;;;;;-0.37;78.68;99675.72;4996207;28;19929;-84
2022/11/14 01:31:21;;;;;;;;;;;;;;;-0.43;78.27;99666.56;5013511;28;20379;-84
2022/11/14 01:34:06;;;;;;;;;;;;;;;-0.47;77.32;99681.94;5011365;28;20405;-84
2022/11/14 01:36:51;;;;;;;;;;;;;;;-0.46;77.18;99680.13;5014261;28;19940;-84
2022/11/14 01:39:36;;;;;;;;;;;;;;;-0.47;76.88;99687.25;5013899;28;19935;-84
2022/11/14 01:42:22;;;;;;;;;;;;;;;-0.46;77.00;99696.91;5013768;28;20035;-85
2022/11/14 01:45:30;;;;;;;;;;;;;;;-0.44;76.73;99697.53;5014333;28;19929;-85
2022/11/14 01:48:19;;;;;;;;;;;;;;;-0.43;75.47;99706.34;5000154;28;20388;-84
2022/11/14 01:51:07;;;;;;;;;;;;;;;-0.46;74.76;99711.94;5013804;28;20164;-84
2022/11/14 01:53:54;;;;;;;;;;;;;;;-0.51;74.66;99716.88;5013426;28;20024;-83
2022/11/14 01:56:44;;;;;;;;;;;;;;;-0.49;74.65;99717.56;4998823;28;19929;-84
2022/11/14 01:59:37;;;;;;;;;;;;;;;-0.49;74.05;99717.56;4995613;28;20415;-84
2022/11/14 02:02:23;;;;;;;;;;;;;;;-0.52;73.65;99720.53;5013300;28;20028;-84
2022/11/14 02:05:09;;;;;;;;;;;;;;;-0.55;73.81;99713.72;4998434;28;20032;-84
2022/11/14 02:07:55;;;;;;;;;;;;;;;-0.56;74.23;99725.31;4998166;28;19952;-84
2022/11/14 02:10:40;;;;;;;;;;;;;;;-0.55;74.52;99713.72;5013404;28;20402;-84
2022/11/14 02:13:25;;;;;;;;;;;;;;;-0.57;74.61;99731.59;4985278;28;20044;-83
2022/11/14 02:16:14;;;;;;;;;;;;;;;-0.60;74.29;99734.56;4995228;28;20010;-83
2022/11/14 02:18:59;;;;;;;;;;;;;;;-0.62;74.64;99723.28;5012778;28;19952;-84
2022/11/14 02:21:45;;;;;;;;;;;;;;;-0.61;74.50;99735.53;5012692;28;20402;-84
2022/11/14 02:24:30;;;;;;;;;;;;;;;-0.60;74.64;99747.84;5013057;28;19929;-83
2022/11/14 02:27:15;;;;;;;;;;;;;;;-0.64;74.44;99735.03;5012832;28;20304;-83
2022/11/14 02:30:05;;;;;;;;;;;;;;;-0.61;74.37;99727.59;5012432;28;19937;-83
2022/11/14 02:32:50;;;;;;;;;;;;;;;-0.60;74.24;99747.00;5022081;28;19936;-84
2022/11/14 02:35:55;;;;;;;;;;;;;;;-0.62;73.67;99748.97;5027808;28;20044;-85
2022/11/14 02:38:41;;;;;;;;;;;;;;;-0.65;73.28;99744.81;5013432;28;19976;-85
2022/11/14 02:41:26;;;;;;;;;;;;;;;-0.63;73.14;99755.25;5013048;28;19929;-84
2022/11/14 02:44:12;;;;;;;;;;;;;;;-0.67;72.88;99742.31;5012606;28;19930;-84
2022/11/14 02:46:57;;;;;;;;;;;;;;;-0.75;71.06;99754.69;5012394;28;19940;-84
2022/11/14 02:49:44;;;;;;;;;;;;;;;-0.90;68.89;99767.63;5012489;28;20392;-85
2022/11/14 02:52:29;;;;;;;;;;;;;;;-0.92;69.31;99765.13;5012518;28;19936;-85
2022/11/14 02:55:15;;;;;;;;;;;;;;;-0.92;68.43;99766.94;5012440;28;19930;-84
2022/11/14 02:58:00;;;;;;;;;;;;;;;-0.95;67.54;99761.94;5012043;28;19952;-83
2022/11/14 03:00:45;;;;;;;;;;;;;;;-1.02;66.44;99756.41;5012473;28;19936;-84
2022/11/14 03:03:51;;;;;;;;;;;;;;;-1.02;66.03;99758.25;5000135;28;20057;-85
2022/11/14 03:06:36;;;;;;;;;;;;;;;-1.03;66.34;99783.09;5012773;28;19952;-84
2022/11/14 03:09:21;;;;;;;;;;;;;;;-1.02;66.25;99779.44;5011997;28;19933;-84
2022/11/14 03:12:07;;;;;;;;;;;;;;;-1.03;66.60;99786.56;5011674;28;20342;-84
2022/11/14 03:14:52;;;;;;;;;;;;;;;-1.03;65.91;99773.31;5011931;28;19929;-82
2022/11/14 03:17:38;;;;;;;;;;;;;;;-1.08;65.27;99790.66;5011612;28;19952;-84
2022/11/14 03:20:24;;;;;;;;;;;;;;;-1.13;64.54;99754.00;5011848;28;20392;-83
2022/11/14 03:23:09;;;;;;;;;;;;;;;-1.13;64.60;99786.63;5011834;28;19929;-84
2022/11/14 03:25:57;;;;;;;;;;;;;;;-1.13;64.29;99793.75;4994201;28;19929;-84
2022/11/14 03:28:43;;;;;;;;;;;;;;;-1.12;64.48;99790.09;5011811;28;20466;-85
2022/11/14 03:31:28;;;;;;;;;;;;;;;-1.12;64.59;99787.44;5012028;28;19929;-83
2022/11/14 03:34:14;;;;;;;;;;;;;;;-1.12;65.14;99792.75;5011743;28;20451;-84
2022/11/14 03:36:59;;;;;;;;;;;;;;;-1.10;65.06;99793.44;4993752;28;20057;-84
2022/11/14 03:39:44;;;;;;;;;;;;;;;-1.11;65.38;99802.38;5012154;28;19952;-83
2022/11/14 03:42:33;;;;;;;;;;;;;;;-1.07;65.87;99802.91;5015796;28;19930;-84
2022/11/14 03:45:22;;;;;;;;;;;;;;;-1.10;65.48;99804.03;5015309;28;19937;-82
2022/11/14 03:48:07;;;;;;;;;;;;;;;-1.13;64.08;99809.63;5001440;28;19955;-83
2022/11/14 03:50:54;;;;;;;;;;;;;;;-1.15;63.13;99811.59;5003857;28;20426;-84
2022/11/14 03:53:39;;;;;;;;;;;;;;;-1.19;62.91;99812.88;5001534;28;19929;-81
2022/11/14 03:56:26;;;;;;;;;;;;;;;-1.22;62.96;99811.34;5005201;28;19936;-83
2022/11/14 03:59:11;;;;;;;;;;;;;;;-1.20;63.64;99817.34;5012830;28;19936;-83
2022/11/14 04:01:57;;;;;;;;;;;;;;;-1.18;64.04;99820.69;5007185;23;19936;-84
2022/11/14 04:04:42;;;;;;;;;;;;;;;-1.15;64.15;99819.53;5044928;28;19979;-83
2022/11/14 04:07:28;;;;;;;;;;;;;;;-1.16;64.15;99828.47;5033529;28;19940;-86
2022/11/14 04:10:14;;;;;;;;;;;;;;;-1.17;64.01;99829.44;5037632;28;19961;-84
2022/11/14 04:12:59;;;;;;;;;;;;;;;-1.21;64.22;99818.31;5037384;28;20302;-83
2022/11/14 04:15:45;;;;;;;;;;;;;;;-1.20;63.79;99819.16;5043007;28;19929;-84
2022/11/14 04:18:30;;;;;;;;;;;;;;;-1.23;63.42;99811.50;5035830;28;19929;-82
2022/11/14 04:21:16;;;;;;;;;;;;;;;-1.22;63.73;99818.47;5031334;28;20457;-81
2022/11/14 04:24:02;;;;;;;;;;;;;;;-1.23;63.25;99822.94;5036972;28;19929;-83
2022/11/14 04:26:55;;;;;;;;;;;;;;;-1.25;63.35;99837.31;5047721;28;19929;-82
2022/11/14 04:29:40;;;;;;;;;;;;;;;-1.26;62.95;99847.06;5043363;28;19975;-82
2022/11/14 04:32:26;;;;;;;;;;;;;;;-1.28;63.22;99853.50;5020592;28;20290;-82
2022/11/14 04:35:11;;;;;;;;;;;;;;;-1.29;63.32;99851.81;5032038;28;19936;-86
2022/11/14 04:37:56;;;;;;;;;;;;;;;-1.31;62.79;99854.63;5033589;28;19929;-82
2022/11/14 04:40:47;;;;;;;;;;;;;;;-1.37;62.98;99844.59;5046566;28;19975;-83
2022/11/14 04:43:32;;;;;;;;;;;;;;;-1.42;62.10;99850.38;5036020;28;19936;-81
2022/11/14 04:46:18;;;;;;;;;;;;;;;-1.44;62.36;99860.28;5049698;28;19936;-81
2022/11/14 04:49:03;;;;;;;;;;;;;;;-1.47;62.47;99865.84;5038056;28;19935;-81
2022/11/14 04:51:48;;;;;;;;;;;;;;;-1.57;62.43;99859.75;5052644;28;19929;-82
2022/11/14 04:54:34;;;;;;;;;;;;;;;-1.62;62.25;99854.91;5053897;28;19928;-81
2022/11/14 04:57:19;;;;;;;;;;;;;;;-1.65;62.54;99855.19;5053182;28;19928;-81
2022/11/14 05:00:05;;;;;;;;;;;;;;;-1.66;63.02;99860.63;5052749;28;19986;-80
2022/11/14 05:02:50;;;;;;;;;;;;;;;-1.68;63.47;99870.53;5052814;28;20049;-80
2022/11/14 05:05:36;;;;;;;;;;;;;;;-1.71;63.17;99862.88;5052961;28;19956;-81
2022/11/14 05:08:26;;;;;;;;;;;;;;;-1.71;63.50;99870.81;5052555;28;20031;-81
2022/11/14 05:11:13;;;;;;;;;;;;;;;-1.71;63.76;99865.53;5052426;28;19929;-81
2022/11/14 05:13:58;;;;;;;;;;;;;;;-1.75;63.71;99888.78;5052735;28;19929;-81
2022/11/14 05:16:44;;;;;;;;;;;;;;;-1.70;63.49;99881.25;5036838;28;20337;-81
2022/11/14 05:19:29;;;;;;;;;;;;;;;-1.69;63.50;99890.03;5052011;28;20400;-80
2022/11/14 05:22:14;;;;;;;;;;;;;;;-1.74;63.71;99898.41;5051954;28;19929;-82
2022/11/14 05:25:00;;;;;;;;;;;;;;;-1.75;63.99;99894.94;5052163;28;19929;-81
2022/11/14 05:27:46;;;;;;;;;;;;;;;-1.73;63.68;99901.88;5052900;28;19967;-81
2022/11/14 05:30:32;;;;;;;;;;;;;;;-1.75;63.48;99909.97;5052415;28;20055;-80
2022/11/14 05:33:17;;;;;;;;;;;;;;;-1.79;63.72;99909.41;5052649;28;19928;-81
2022/11/14 05:36:03;;;;;;;;;;;;;;;-1.80;63.24;99913.06;5051884;28;19935;-81
2022/11/14 05:38:49;;;;;;;;;;;;;;;-1.87;63.60;99917.25;5052434;28;19940;-81
2022/11/14 05:41:48;;;;;;;;;;;;;;;-1.91;63.94;99915.03;5052874;28;20076;-80
2022/11/14 05:44:34;;;;;;;;;;;;;;;-1.97;64.10;99929.66;5038094;28;20345;-81
2022/11/14 05:47:19;;;;;;;;;;;;;;;-2.01;64.23;99920.31;5052584;28;19932;-80
2022/11/14 05:50:08;;;;;;;;;;;;;;;-2.03;64.44;99931.03;5052369;28;20292;-80
2022/11/14 05:52:55;;;;;;;;;;;;;;;-2.04;64.52;99929.38;5052435;28;19936;-80
2022/11/14 05:55:40;;;;;;;;;;;;;;;-2.02;64.96;99937.19;5037265;28;20468;-79
2022/11/14 05:58:25;;;;;;;;;;;;;;;-2.00;65.08;99938.72;5034078;28;19933;-81
2022/11/14 06:01:15;;;;;;;;;;;;;;;-1.96;64.95;99948.00;5051714;28;19928;-80
2022/11/14 06:04:01;;;;;;;;;;;;;;;-1.97;64.82;99943.72;5052165;28;19936;-82
2022/11/14 06:06:46;;;;;;;;;;;;;;;-2.00;65.09;99951.09;5037047;28;20322;-81
2022/11/14 06:09:31;;;;;;;;;;;;;;;-1.98;64.96;99959.72;5052616;28;20405;-81
2022/11/14 06:12:17;;;;;;;;;;;;;;;-1.98;65.13;99965.84;5051923;28;19935;-81
2022/11/14 06:15:03;;;;;;;;;;;;;;;-1.99;65.09;99963.34;5052099;28;19928;-80
2022/11/14 06:17:50;;;;;;;;;;;;;;;-1.99;64.98;99973.94;5052093;28;19929;-81
2022/11/14 06:20:36;;;;;;;;;;;;;;;-1.99;65.42;99966.00;5051911;28;19941;-80
2022/11/14 06:23:21;;;;;;;;;;;;;;;-1.98;64.74;99973.78;5006101;28;20395;-80
2022/11/14 06:26:24;;;;;;;;;;;;;;;-2.00;64.84;99986.34;5037207;28;19933;-80
2022/11/14 06:29:10;;;;;;;;;;;;;;;-1.92;65.32;99996.22;5038677;28;20011;-82
2022/11/14 06:31:57;;;;;;;;;;;;;;;-1.88;64.84;99989.66;5052801;28;20284;-81
2022/11/14 06:34:43;;;;;;;;;;;;;;;-1.85;64.50;99999.13;5039306;28;20330;-81
2022/11/14 06:37:28;;;;;;;;;;;;;;;-1.82;64.34;100004.16;5047112;28;19936;-80
2022/11/14 06:40:17;;;;;;;;;;;;;;;-1.75;63.99;100003.44;5031153;28;20354;-81
2022/11/14 06:43:03;;;;;;;;;;;;;;;-1.76;62.72;100009.69;5031594;28;19936;-82
2022/11/14 06:45:52;;;;;;;;;;;;;;;-1.81;62.06;100006.63;5031587;28;19964;-80
2022/11/14 06:48:37;;;;;;;;;;;;;;;-1.81;62.22;100011.94;5031602;28;19936;-81
2022/11/14 06:51:23;;;;;;;;;;;;;;;-1.67;62.26;100009.81;5015515;28;20011;-81
2022/11/14 06:54:14;;;;;;;;;;;;;;;-1.52;61.59;100016.34;5029129;28;19940;-81
2022/11/14 06:57:00;;;;;;;;;;;;;;;-1.39;60.86;100001.00;5030028;28;19929;-81
2022/11/14 06:59:46;;;;;;;;;;;;;;;-1.20;60.07;100015.19;5030822;28;19936;-80
2022/11/14 07:02:32;;;;;;;;;;;;;;;-1.08;59.52;100019.31;5014054;28;20071;-80
2022/11/14 07:05:17;;;;;;;;;;;;;;;-0.93;59.00;100017.88;5011947;28;19936;-82
2022/11/14 07:08:03;;;;;;;;;;;;;;;-0.75;58.58;100019.75;5031033;28;19957;-81
2022/11/14 07:10:48;;;;;;;;;;;;;;;-0.60;58.22;100028.06;5030895;28;20315;-81
2022/11/14 07:13:35;;;;;;;;;;;;;;;-0.55;57.65;100033.75;5031117;28;19936;-80
2022/11/14 07:16:24;;;;;;;;;;;;;;;-0.44;57.01;100030.88;5015462;28;19929;-79
2022/11/14 07:19:10;;;;;;;;;;;;;;;-0.27;56.79;100034.56;4681375;28;10000656;-81
2022/11/14 07:21:55;;;;;;;;;;;;;;;-0.09;56.21;100037.22;5037079;28;19934;-80
2022/11/14 07:24:48;;;;;;;;;;;;;;;0.23;55.29;100034.06;5027315;28;19936;-81
2022/11/14 07:27:34;;;;;;;;;;;;;;;0.29;55.08;100044.06;5025725;28;20414;-78
2022/11/14 07:30:20;;;;;;;;;;;;;;;0.52;54.61;100055.03;5025203;28;19933;-81
2022/11/14 07:33:06;;;;;;;;;;;;;;;0.70;53.94;100048.88;5027099;28;20199;-82
2022/11/14 07:35:52;;;;;;;;;;;;;;;0.67;53.04;100047.34;5016413;28;19936;-82
2022/11/14 07:38:37;;;;;;;;;;;;;;;1.00;53.11;100055.53;5031186;28;19936;-82
2022/11/14 07:41:22;;;;;;;;;;;;;;;0.78;51.33;100070.16;5015921;28;19975;-80
2022/11/14 07:44:09;;;;;;;;;;;;;;;0.83;51.87;100063.38;5013099;28;20023;-82
2022/11/14 07:46:55;;;;;;;;;;;;;;;1.23;51.43;100071.78;5015690;28;20510;-80
2022/11/14 07:49:40;;;;;;;;;;;;;;;1.87;51.11;100069.53;5030647;28;19929;-81
2022/11/14 07:52:26;;;;;;;;;;;;;;;2.39;50.48;100069.31;5015693;28;19929;-80
2022/11/14 07:55:11;;;;;;;;;;;;;;;2.37;48.66;100060.66;5030690;28;19983;-80
2022/11/14 07:58:00;;;;;;;;;;;;;;;2.26;48.84;100072.47;5015984;28;20418;-80
2022/11/14 08:00:48;;;;;;;;;;;;;;;2.50;48.29;100078.81;5030629;28;19995;-80
2022/11/14 08:03:34;;;;;;;;;;;;;;;3.03;47.94;100064.09;5030727;28;19929;-80
2022/11/14 08:06:20;;;;;;;;;;;;;;;2.83;46.75;100082.28;5012559;28;19944;-81
2022/11/14 08:09:05;;;;;;;;;;;;;;;3.17;47.36;100073.25;5030396;28;20202;-81
2022/11/14 08:11:56;;;;;;;;;;;;;;;3.59;47.02;100072.09;5030583;28;20425;-81
2022/11/14 08:14:41;;;;;;;;;;;;;;;3.21;44.96;100074.56;5016310;28;19929;-81
2022/11/14 08:17:26;;;;;;;;;;;;;;;3.09;45.67;100076.78;5030788;28;20288;-81
2022/11/14 08:20:15;;;;;;;;;;;;;;;3.50;45.79;100083.84;5030301;28;20366;-81
2022/11/14 08:23:00;;;;;;;;;;;;;;;3.85;44.95;100087.88;5030672;28;19940;-81
2022/11/14 08:25:46;;;;;;;;;;;;;;;3.67;44.33;100080.06;5016011;28;20367;-81
2022/11/14 08:28:34;;;;;;;;;;;;;;;3.89;44.54;100084.66;5034228;28;19968;-82
2022/11/14 08:31:20;;;;;;;;;;;;;;;4.25;43.83;100085.94;5033929;28;19933;-80
2022/11/14 08:34:08;;;;;;;;;;;;;;;4.10;43.65;100091.22;5033988;28;20370;-82
2022/11/14 08:36:55;;;;;;;;;;;;;;;4.21;42.60;100090.84;5033726;28;19936;-81
2022/11/14 08:39:41;;;;;;;;;;;;;;;4.15;43.33;100088.84;5034080;28;19952;-81
2022/11/14 08:42:32;;;;;;;;;;;;;;;4.58;42.77;100094.56;5033923;28;20319;-81
2022/11/14 08:45:18;;;;;;;;;;;;;;;5.04;42.17;100091.00;5033974;28;19933;-81
2022/11/14 08:48:03;;;;;;;;;;;;;;;5.33;41.37;100082.19;5033872;28;20003;-81
2022/11/14 08:50:49;;;;;;;;;;;;;;;4.86;41.06;100085.97;5033921;28;19936;-81
2022/11/14 08:53:39;;;;;;;;;;;;;;;4.87;41.62;100085.00;5019724;28;19947;-80
2022/11/14 08:56:25;;;;;;;;;;;;;;;5.31;40.21;100077.00;5033466;28;19935;-82
2022/11/14 08:59:10;;;;;;;;;;;;;;;4.97;40.61;100082.88;5033257;28;20031;-82
2022/11/14 09:01:56;;;;;;;;;;;;;;;4.75;40.93;100080.06;5033464;28;19929;-80
2022/11/14 09:04:41;;;;;;;;;;;;;;;5.43;40.62;100093.44;5033418;28;19929;-80
2022/11/14 09:07:27;;;;;;;;;;;;;;;5.42;39.46;100094.47;5033492;28;20320;-80
2022/11/14 09:10:13;;;;;;;;;;;;;;;4.81;39.62;100088.38;5018725;28;19929;-80
2022/11/14 09:13:04;;;;;;;;;;;;;;;5.24;39.60;100088.63;5033593;28;19936;-80
2022/11/14 09:16:12;;;;;;;;;;;;;;;5.56;39.16;100093.63;5011216;28;20240;-81
2022/11/14 09:18:57;;;;;;;;;;;;;;;5.42;38.95;100091.78;5033485;28;19929;-80
2022/11/14 09:21:42;;;;;;;;;;;;;;;5.65;39.16;100092.53;5015025;28;20564;-82
2022/11/14 09:24:27;;;;;;;;;;;;;;;5.97;38.58;100086.97;5033084;28;19929;-81
2022/11/14 09:27:30;;;;;;;;;;;;;;;6.51;38.21;100092.72;5020288;28;19933;-81
2022/11/14 09:30:18;;;;;;;;;;;;;;;7.05;37.98;100094.00;5015293;28;19936;-82
2022/11/14 09:33:03;;;;;;;;;;;;;;;7.78;37.40;100091.75;5018084;28;20008;-82
2022/11/14 09:35:59;;;;;;;;;;;;;;;8.07;36.80;100095.16;5033074;28;19936;-82
2022/11/14 09:38:45;;;;;;;;;;;;;;;8.11;36.70;100087.56;5031921;28;20358;-81
2022/11/14 09:41:33;;;;;;;;;;;;;;;8.00;36.68;100094.31;5032636;28;20036;-81
2022/11/14 09:44:33;;;;;;;;;;;;;;;7.64;36.79;100090.03;5032385;28;20083;-82
2022/11/14 09:47:20;;;;;;;;;;;;;;;7.68;36.40;100090.47;5032451;28;19929;-82
2022/11/14 09:50:11;;;;;;;;;;;;;;;7.35;36.76;100102.69;5014805;28;19958;-80
2022/11/14 09:52:58;;;;;;;;;;;;;;;7.48;36.80;100095.75;4676498;28;10000499;-82
2022/11/14 09:55:43;;;;;;;;;;;;;;;7.83;35.66;100096.53;4995924;28;19930;-81
2022/11/14 09:58:28;;;;;;;;;;;;;;;7.01;36.92;100092.72;5014560;28;20382;-82
2022/11/14 10:01:23;;;;;;;;;;;;;;;6.97;37.10;100098.69;5004705;28;19929;-83
2022/11/14 10:04:18;;;;;;;;;;;;;;;7.09;36.62;100099.78;5028903;28;19936;-82
2022/11/14 10:07:06;;;;;;;;;;;;;;;7.08;36.96;100092.78;5011562;28;19929;-81
2022/11/14 10:09:58;;;;;;;;;;;;;;;7.60;36.86;100091.47;5022552;28;20295;-80
2022/11/14 10:13:03;;;;;;;;;;;;;;;8.06;35.54;100084.63;5007914;28;19935;-81
2022/11/14 10:15:53;;;;;;;;;;;;;;;7.94;35.93;100082.50;5009263;28;19933;-82
2022/11/14 10:18:42;;;;;;;;;;;;;;;7.75;36.11;100088.66;4994254;28;19937;-80
2022/11/14 10:21:27;;;;;;;;;;;;;;;8.68;35.77;100087.09;5008173;28;19956;-80
2022/11/14 10:24:13;;;;;;;;;;;;;;;8.72;35.39;100094.75;5008990;28;19937;-81
2022/11/14 10:27:02;;;;;;;;;;;;;;;8.99;35.21;100079.41;5016521;28;19936;-80
2022/11/14 10:29:57;;;;;;;;;;;;;;;8.89;34.74;100074.47;5031809;28;19935;-82
2022/11/14 10:33:02;;;;;;;;;;;;;;;8.46;35.46;100078.34;5051941;28;20347;-80
2022/11/14 10:35:49;;;;;;;;;;;;;;;8.86;35.31;100070.31;5051805;28;19951;-82
2022/11/14 10:38:42;;;;;;;;;;;;;;;9.36;34.58;100075.22;5023695;28;19990;-83
2022/11/14 10:41:28;;;;;;;;;;;;;;;9.57;34.39;100063.38;5025991;28;19940;-83
2022/11/14 10:44:38;;;;;;;;;;;;;;;8.92;34.67;100063.28;5044451;28;19960;-82
2022/11/14 10:47:23;;;;;;;;;;;;;;;8.64;34.84;100063.47;5024504;28;19936;-82
2022/11/14 10:50:18;;;;;;;;;;;;;;;9.09;34.67;100064.50;5000241;28;19932;-83
2022/11/14 10:53:05;;;;;;;;;;;;;;;9.75;34.16;100063.50;5031769;28;20310;-83
2022/11/14 10:55:51;;;;;;;;;;;;;;;9.74;34.06;100069.09;5048927;28;19928;-84
2022/11/14 10:58:52;;;;;;;;;;;;;;;9.60;33.45;100070.22;5030163;28;19929;-82
2022/11/14 11:01:37;;;;;;;;;;;;;;;8.44;34.28;100066.16;5045607;28;19942;-81
2022/11/14 11:04:30;;;;;;;;;;;;;;;8.29;34.90;100078.91;5023711;28;19936;-84
2022/11/14 11:14:18;;;;;;;;;;;;;;;7.81;35.41;100075.22;4989623;28;20470;-81
2022/11/14 11:17:09;;;;;;;;;;;;;;;8.47;34.84;100071.09;4990260;28;19940;-82
2022/11/14 11:19:54;;;;;;;;;;;;;;;8.96;34.54;100056.41;4961995;28;19930;-82
2022/11/14 11:22:41;;;;;;;;;;;;;;;8.82;34.37;100063.69;4977285;28;19930;-81
2022/11/14 11:25:28;;;;;;;;;;;;;;;8.45;34.73;100062.41;4980237;28;19985;-82
2022/11/14 11:28:17;;;;;;;;;;;;;;;8.32;34.94;100062.38;4971231;28;20301;-82
2022/11/14 11:31:05;;;;;;;;;;;;;;;8.87;34.83;100049.59;4969998;28;19931;-82
2022/11/14 11:33:50;;;;;;;;;;;;;;;8.98;34.82;100072.38;4969868;28;19942;-82
2022/11/14 11:36:39;;;;;;;;;;;;;;;9.18;34.29;100062.41;4956586;28;19930;-82
2022/11/14 11:39:26;;;;;;;;;;;;;;;9.29;33.98;100074.41;4956430;28;19929;-82
2022/11/14 11:42:50;;;;;;;;;;;;;;;7.91;34.93;100065.97;4955997;28;20005;-82
2022/11/14 11:45:55;;;;;;;;;;;;;;;7.57;35.90;100078.41;4950753;29;19942;-82
2022/11/14 11:48:41;;;;;;;;;;;;;;;8.09;35.20;100082.38;4968019;28;19930;-80
2022/11/14 11:51:26;;;;;;;;;;;;;;;7.54;35.63;100070.75;4969701;28;20039;-82
2022/11/14 11:54:15;;;;;;;;;;;;;;;7.37;35.88;100072.94;4969548;28;19930;-82
2022/11/14 11:57:01;;;;;;;;;;;;;;;7.63;35.92;100077.63;4967112;28;20459;-81
2022/11/14 11:59:48;;;;;;;;;;;;;;;8.26;35.49;100069.38;4959882;28;20356;-81
2022/11/14 12:02:36;;;;;;;;;;;;;;;7.49;36.60;100074.03;4968911;28;19931;-86
2022/11/14 12:05:25;;;;;;;;;;;;;;;8.19;35.63;100063.16;4973072;28;20041;-81
2022/11/14 12:08:39;;;;;;;;;;;;;;;8.06;35.21;100079.25;4959374;28;19941;-84
2022/11/14 12:11:25;;;;;;;;;;;;;;;7.05;35.88;100079.75;4965280;28;19930;-81
2022/11/14 12:14:29;;;;;;;;;;;;;;;7.35;36.09;100078.50;4968058;28;19934;-84
2022/11/14 12:17:24;;;;;;;;;;;;;;;7.17;36.26;100086.25;5025335;28;19928;-83
2022/11/14 12:20:15;;;;;;;;;;;;;;;7.01;36.41;100081.16;5040306;28;20383;-83
2022/11/14 12:23:20;;;;;;;;;;;;;;;7.01;36.39;100081.97;5015868;28;20426;-85
2022/11/14 12:26:12;;;;;;;;;;;;;;;7.09;36.62;100083.69;5021062;28;19964;-84
2022/11/14 12:28:58;;;;;;;;;;;;;;;7.34;36.74;100084.91;5007705;28;19929;-84
2022/11/14 12:31:44;;;;;;;;;;;;;;;7.43;36.39;100077.53;5029572;28;19930;-82
2022/11/14 12:34:34;;;;;;;;;;;;;;;6.35;37.18;100079.53;5025581;28;20423;-81
2022/11/14 12:37:21;;;;;;;;;;;;;;;6.04;38.08;100075.28;5043674;28;20461;-83
2022/11/14 12:40:07;;;;;;;;;;;;;;;5.88;38.19;100074.69;5039096;28;19975;-83
2022/11/14 12:42:53;;;;;;;;;;;;;;;5.43;38.90;100080.06;5039005;28;20297;-83
2022/11/14 12:45:39;;;;;;;;;;;;;;;5.36;39.28;100081.81;5039269;28;19939;-83
2022/11/14 12:48:24;;;;;;;;;;;;;;;5.90;39.27;100081.50;5054162;28;19982;-83
2022/11/14 12:51:30;;;;;;;;;;;;;;;5.56;39.51;100080.22;5025503;28;20380;-83
2022/11/14 12:54:34;;;;;;;;;;;;;;;3.85;42.38;100087.88;5012323;28;19929;-82
2022/11/14 12:57:49;;;;;;;;;;;;;;;2.71;44.19;100080.97;5033318;28;19933;-84
2022/11/14 13:00:37;;;;;;;;;;;;;;;1.49;46.35;100077.06;5023955;28;19952;-83
2022/11/14 13:03:35;;;;;;;;;;;;;;;1.05;47.52;100087.81;5008567;28;20349;-82
2022/11/14 13:06:39;;;;;;;;;;;;;;;0.93;48.03;100083.72;5002386;28;19933;-82
2022/11/14 13:09:25;;;;;;;;;;;;;;;0.79;48.53;100085.16;5024193;28;19944;-81
2022/11/14 13:22:10;;;;;;;;;;;;;;;0.28;50.37;100086.69;4987448;28;19995;-82
2022/11/14 13:25:00;;;;;;;;;;;;;;;0.14;50.71;100086.22;4993248;28;19952;-82
2022/11/14 13:27:56;;;;;;;;;;;;;;;-0.04;51.31;100088.88;4999894;28;19930;-84
2022/11/14 13:31:12;;;;;;;;;;;;;;;-0.24;51.84;100089.97;5025525;28;19953;-82
2022/11/14 13:34:01;;;;;;;;;;;;;;;-0.39;52.37;100084.31;4982332;28;19936;-83
2022/11/14 13:36:47;;;;;;;;;;;;;;;-0.39;52.79;100086.16;4999520;28;19930;-82
2022/11/14 13:39:51;;;;;;;;;;;;;;;-0.52;52.92;100089.97;5017321;28;19936;-81
2022/11/14 13:42:56;;;;;;;;;;;;;;;-0.54;53.51;100097.22;5007554;28;19929;-81
2022/11/14 13:46:00;;;;;;;;;;;;;;;-0.38;53.20;100095.75;5012694;28;20350;-83
2022/11/14 13:48:47;;;;;;;;;;;;;;;-0.52;53.68;100079.34;4998101;28;19965;-86
2022/11/14 13:51:33;;;;;;;;;;;;;;;-0.63;53.95;100095.47;4985253;28;19929;-84
2022/11/14 13:54:28;;;;;;;;;;;;;;;-0.75;54.30;100089.50;4999245;28;19955;-86
2022/11/14 13:57:14;;;;;;;;;;;;;;;-0.65;54.43;100097.44;5019946;28;20034;-85
2022/11/14 14:00:17;;;;;;;;;;;;;;;-0.74;54.59;100092.97;5038671;28;20013;-87
2022/11/14 14:03:14;;;;;;;;;;;;;;;-0.90;55.13;100094.44;5019611;28;20420;-83
2022/11/14 14:06:07;;;;;;;;;;;;;;;-1.00;55.56;100092.78;5027288;28;19936;-87
2022/11/14 14:08:55;;;;;;;;;;;;;;;-1.10;56.03;100091.00;5042519;28;20003;-85
2022/11/14 14:11:41;;;;;;;;;;;;;;;-1.11;56.16;100099.94;5017126;28;19940;-87
2022/11/14 14:14:46;;;;;;;;;;;;;;;-1.13;56.41;100093.94;5024110;28;19936;-85
2022/11/14 14:17:41;;;;;;;;;;;;;;;-1.13;56.55;100085.16;5029497;28;19951;-84
2022/11/14 14:20:27;;;;;;;;;;;;;;;-1.15;56.85;100079.97;5021086;28;19929;-86
2022/11/14 14:23:31;;;;;;;;;;;;;;;-1.20;56.92;100092.00;5027562;28;19952;-85
2022/11/14 14:26:26;;;;;;;;;;;;;;;-1.15;56.88;100093.22;5046198;28;19928;-84
2022/11/14 14:29:22;;;;;;;;;;;;;;;-1.31;57.21;100093.00;5048384;28;19936;-84
2022/11/14 14:32:12;;;;;;;;;;;;;;;-1.47;57.96;100093.53;5011820;28;20383;-83
2022/11/14 14:34:59;;;;;;;;;;;;;;;-1.41;58.32;100082.41;5028849;28;19928;-82
2022/11/14 14:37:52;;;;;;;;;;;;;;;-1.41;57.95;100097.47;5050444;28;19983;-82
2022/11/14 14:40:52;;;;;;;;;;;;;;;-1.47;58.30;100090.91;5044524;28;20031;-83
2022/11/14 14:43:39;;;;;;;;;;;;;;;-1.37;58.06;100090.91;5056673;28;19940;-84
2022/11/14 14:46:28;;;;;;;;;;;;;;;-1.43;58.11;100084.34;5033371;28;19975;-83
2022/11/14 14:49:21;;;;;;;;;;;;;;;-1.46;58.69;100089.09;5033045;28;19929;-83
2022/11/14 14:52:25;;;;;;;;;;;;;;;-1.56;58.97;100081.16;5023277;28;19936;-84